Terminal Aerodrome Forecast
Issued by NWS Portland, OR

Home | Current Version | Previous Version | Text Only | Print | Product List | Glossary On
Versions: 1 2 3 4 5 6 7 8 9 10 11 12 13 14 15 16 17 18 19 20 21 22 23 24 25 26 27 28 29 30 31 32 33 34 35 36 37 38 39 40 41 42 43 44 45 46 47 48 49 50
003
FTUS46 KPQR 180355 AAC
TAFPDX
TAF AMD
KPDX 180355Z 1804/1824 00000KT 4SM BR BCFG FEW001 FEW010 SCT060
      TEMPO 1804/1808 1/2SM FG SCT001 BKN010
     FM180800 14004KT 3SM BR SCT006 BKN015
     FM181100 14005KT 5SM BR SCT015 OVC025
     FM181600 14016G25KT 5SM -RA BR SCT012 OVC018
     FM182100 19016G24KT P6SM -SHRA SCT022 BKN035=

USA.gov is the U.S. government's official web portal to all federal, state and local government web resources and services.